Time;durP1;ratioP1;P1;durP2;ratioP2;P2;SDS_P1;SDS_P2;PMS_P1;PMS_P2;Temp;Humidity;BMP_temperature;BMP_pressure;BME280_temperature;BME280_humidity;BME280_pressure;Samples;Min_cycle;Max_cycle;Signal;HPM_P1;HPM_P2
2022/05/17 00:00:51;;;;;;;59.08;46.35;;;;;;;;;;4983229;28;20457;-85
2022/05/17 00:03:17;;;;;;;53.53;42.83;;;;;;;;;;4984287;28;20442;-84
2022/05/17 00:05:46;;;;;;;54.28;42.65;;;;;;;;;;4983208;28;20441;-84
2022/05/17 00:08:12;;;;;;;51.30;40.60;;;;;;;;;;4983297;28;20494;-84
2022/05/17 00:10:39;;;;;;;53.42;40.83;;;;;;;;;;4984720;28;20439;-85
2022/05/17 00:13:05;;;;;;;46.42;36.20;;;;;;;;;;4982913;28;20481;-84
2022/05/17 00:15:32;;;;;;;48.92;39.22;;;;;;;;;;4985402;28;20465;-84
2022/05/17 00:17:58;;;;;;;49.88;39.85;;;;;;;;;;4983833;28;20427;-84
2022/05/17 00:20:25;;;;;;;48.17;39.42;;;;;;;;;;4984051;28;20437;-85
2022/05/17 00:22:52;;;;;;;50.25;38.30;;;;;;;;;;4983926;28;20520;-85
2022/05/17 00:25:19;;;;;;;50.10;38.85;;;;;;;;;;4983904;28;20442;-86
2022/05/17 00:27:45;;;;;;;51.17;40.13;;;;;;;;;;4985624;28;20432;-85
2022/05/17 00:30:12;;;;;;;51.20;38.60;;;;;;;;;;4983812;28;20999;-84
2022/05/17 00:32:39;;;;;;;54.90;40.13;;;;;;;;;;4985244;28;20435;-84
2022/05/17 00:35:05;;;;;;;55.50;40.17;;;;;;;;;;4984261;28;20587;-85
2022/05/17 00:37:31;;;;;;;50.60;40.55;;;;;;;;;;4982775;28;20434;-84
2022/05/17 00:39:59;;;;;;;54.28;39.63;;;;;;;;;;4982327;28;20496;-85
2022/05/17 00:42:26;;;;;;;57.28;40.63;;;;;;;;;;4979847;28;20493;-84
2022/05/17 00:44:52;;;;;;;50.20;38.17;;;;;;;;;;4986133;28;20954;-84
2022/05/17 00:47:19;;;;;;;50.10;39.80;;;;;;;;;;4982707;28;20469;-84
2022/05/17 00:49:49;;;;;;;54.33;38.43;;;;;;;;;;4980918;28;20440;-84
2022/05/17 00:52:18;;;;;;;49.80;39.33;;;;;;;;;;4982564;28;20417;-84
2022/05/17 00:54:44;;;;;;;47.17;35.40;;;;;;;;;;4984459;28;20436;-84
2022/05/17 00:57:17;;;;;;;43.40;34.58;;;;;;;;;;4980954;28;21173;-84
2022/05/17 00:59:44;;;;;;;47.70;36.40;;;;;;;;;;4980966;28;20508;-85
2022/05/17 01:02:10;;;;;;;46.47;34.22;;;;;;;;;;4982574;28;20471;-85
2022/05/17 01:04:37;;;;;;;45.70;35.50;;;;;;;;;;4983483;28;20500;-85
2022/05/17 01:07:06;;;;;;;48.95;36.20;;;;;;;;;;4982325;28;20446;-85
2022/05/17 01:09:33;;;;;;;44.65;33.28;;;;;;;;;;4981918;28;20442;-84
2022/05/17 01:11:59;;;;;;;45.83;35.00;;;;;;;;;;4981919;28;20516;-84
2022/05/17 01:17:10;;;;;;;42.50;32.10;;;;;;;;;;4981044;28;20444;-84
2022/05/17 01:19:39;;;;;;;46.97;33.47;;;;;;;;;;4981574;28;20438;-84
2022/05/17 01:22:06;;;;;;;44.08;34.50;;;;;;;;;;4982594;28;20986;-85
2022/05/17 01:24:33;;;;;;;42.80;32.73;;;;;;;;;;4982794;28;20904;-85
2022/05/17 01:27:00;;;;;;;43.05;33.55;;;;;;;;;;4983043;28;20442;-85
2022/05/17 01:29:27;;;;;;;47.55;34.33;;;;;;;;;;4983364;28;20434;-85
2022/05/17 01:31:53;;;;;;;44.83;33.20;;;;;;;;;;4982736;28;20439;-84
2022/05/17 01:34:20;;;;;;;43.40;34.10;;;;;;;;;;4982946;28;20480;-85
2022/05/17 01:36:47;;;;;;;45.55;33.13;;;;;;;;;;4982257;28;20929;-85
2022/05/17 01:39:14;;;;;;;39.70;32.28;;;;;;;;;;4981075;28;20521;-85
2022/05/17 01:41:41;;;;;;;44.28;32.78;;;;;;;;;;4980539;28;20438;-84
2022/05/17 01:44:07;;;;;;;38.90;31.40;;;;;;;;;;4980194;28;20502;-85
2022/05/17 01:46:33;;;;;;;43.13;31.57;;;;;;;;;;4982379;28;20487;-84
2022/05/17 01:48:59;;;;;;;41.70;31.42;;;;;;;;;;4994908;28;20420;-85
2022/05/17 01:51:25;;;;;;;43.85;32.47;;;;;;;;;;5001056;28;20434;-85
2022/05/17 01:53:51;;;;;;;42.67;30.80;;;;;;;;;;4999668;28;20433;-86
2022/05/17 01:56:19;;;;;;;42.17;30.30;;;;;;;;;;5000336;28;20429;-84
2022/05/17 01:58:46;;;;;;;40.05;30.55;;;;;;;;;;4998619;28;20475;-84
2022/05/17 02:01:12;;;;;;;43.20;31.80;;;;;;;;;;5000334;28;20876;-84
2022/05/17 02:03:38;;;;;;;42.45;32.75;;;;;;;;;;4998232;28;20511;-84
2022/05/17 02:06:05;;;;;;;45.50;34.90;;;;;;;;;;4999714;28;20444;-85
2022/05/17 02:08:31;;;;;;;47.95;34.47;;;;;;;;;;4999229;28;20476;-85
2022/05/17 02:10:58;;;;;;;46.08;35.42;;;;;;;;;;4999445;28;20433;-84
2022/05/17 02:13:25;;;;;;;40.90;31.33;;;;;;;;;;5000292;28;20419;-85
2022/05/17 02:15:51;;;;;;;39.60;31.30;;;;;;;;;;4999636;28;20426;-84
2022/05/17 02:18:18;;;;;;;38.22;31.38;;;;;;;;;;4999304;28;20846;-84
2022/05/17 02:20:44;;;;;;;42.85;31.17;;;;;;;;;;5002556;28;20983;-83
2022/05/17 02:23:10;;;;;;;37.35;30.42;;;;;;;;;;5001310;28;20452;-84
2022/05/17 02:25:37;;;;;;;38.70;30.80;;;;;;;;;;5002254;28;20432;-85
2022/05/17 02:28:04;;;;;;;38.17;29.83;;;;;;;;;;4999771;28;20842;-84
2022/05/17 02:30:31;;;;;;;45.53;31.63;;;;;;;;;;5001346;28;20419;-84
2022/05/17 02:32:58;;;;;;;38.72;28.50;;;;;;;;;;4999768;28;20426;-85
2022/05/17 02:35:24;;;;;;;42.58;32.75;;;;;;;;;;5000414;28;20432;-85
2022/05/17 02:37:50;;;;;;;42.95;32.28;;;;;;;;;;5000403;28;20434;-85
2022/05/17 02:40:16;;;;;;;38.00;29.83;;;;;;;;;;4998759;28;20430;-85
2022/05/17 02:42:43;;;;;;;38.25;31.00;;;;;;;;;;5000707;28;20424;-85
2022/05/17 02:45:11;;;;;;;42.70;30.13;;;;;;;;;;5001796;28;20433;-85
2022/05/17 02:47:39;;;;;;;43.20;31.10;;;;;;;;;;5001420;28;20445;-85
2022/05/17 02:50:06;;;;;;;43.67;32.53;;;;;;;;;;4999617;28;20510;-85
2022/05/17 02:52:32;;;;;;;43.35;31.40;;;;;;;;;;5001317;28;20414;-85
2022/05/17 02:54:58;;;;;;;40.92;30.50;;;;;;;;;;4999155;28;20436;-86
2022/05/17 02:57:24;;;;;;;42.13;31.75;;;;;;;;;;4999488;28;20909;-84
2022/05/17 02:59:50;;;;;;;39.47;31.10;;;;;;;;;;5001968;28;20490;-84
2022/05/17 03:02:17;;;;;;;38.73;29.67;;;;;;;;;;5002652;28;20431;-83
2022/05/17 03:04:45;;;;;;;44.50;32.73;;;;;;;;;;5004792;28;20824;-84
2022/05/17 03:07:11;;;;;;;45.30;34.10;;;;;;;;;;5003967;28;20465;-85
2022/05/17 03:09:37;;;;;;;45.08;33.97;;;;;;;;;;5005452;28;20438;-85
2022/05/17 03:12:05;;;;;;;47.78;34.45;;;;;;;;;;5004475;28;21603;-85
2022/05/17 03:14:31;;;;;;;48.63;35.00;;;;;;;;;;5006364;28;20437;-85
2022/05/17 03:16:57;;;;;;;48.80;35.00;;;;;;;;;;5005866;28;20499;-85
2022/05/17 03:19:23;;;;;;;46.72;33.08;;;;;;;;;;5004857;28;20484;-85
2022/05/17 03:21:51;;;;;;;43.22;33.50;;;;;;;;;;5006278;28;20512;-85
2022/05/17 03:24:17;;;;;;;40.83;31.92;;;;;;;;;;5004561;28;20432;-85
2022/05/17 03:26:43;;;;;;;40.78;32.25;;;;;;;;;;5004894;28;20422;-87
2022/05/17 03:29:09;;;;;;;44.55;34.13;;;;;;;;;;5002613;28;20489;-84
2022/05/17 03:31:36;;;;;;;46.75;33.42;;;;;;;;;;5004012;28;20852;-85
2022/05/17 03:34:02;;;;;;;41.95;31.65;;;;;;;;;;5004202;28;20499;-85
2022/05/17 03:36:28;;;;;;;43.38;32.28;;;;;;;;;;5005542;28;20436;-85
2022/05/17 03:38:56;;;;;;;40.97;33.00;;;;;;;;;;5005270;28;20862;-84
2022/05/17 03:41:22;;;;;;;43.90;32.05;;;;;;;;;;5006383;28;20558;-85
2022/05/17 03:43:48;;;;;;;45.85;34.47;;;;;;;;;;5005756;28;20413;-85
2022/05/17 03:46:15;;;;;;;42.03;31.48;;;;;;;;;;5008222;28;20416;-85
2022/05/17 03:48:41;;;;;;;44.63;31.97;;;;;;;;;;5005492;28;21312;-85
2022/05/17 03:51:13;;;;;;;40.55;31.58;;;;;;;;;;5006988;28;20445;-85
2022/05/17 03:53:40;;;;;;;38.58;30.63;;;;;;;;;;5003854;28;20434;-85
2022/05/17 03:56:07;;;;;;;42.03;31.52;;;;;;;;;;5005897;28;20428;-85
2022/05/17 03:58:33;;;;;;;42.35;30.90;;;;;;;;;;5005232;28;20432;-85
2022/05/17 04:01:00;;;;;;;42.95;31.38;;;;;;;;;;5006885;28;20449;-85
2022/05/17 04:03:26;;;;;;;39.47;30.90;;;;;;;;;;5004698;28;20476;-85
2022/05/17 04:05:52;;;;;;;40.60;31.80;;;;;;;;;;5002536;28;20429;-86
2022/05/17 04:08:18;;;;;;;47.88;32.20;;;;;;;;;;5005003;28;20923;-85
2022/05/17 04:10:45;;;;;;;44.78;31.67;;;;;;;;;;5003410;28;20457;-84
2022/05/17 04:13:13;;;;;;;42.42;33.45;;;;;;;;;;5003961;28;20437;-85
2022/05/17 04:15:39;;;;;;;47.28;34.10;;;;;;;;;;5001392;28;20444;-85
2022/05/17 04:18:05;;;;;;;43.67;31.17;;;;;;;;;;5005378;28;20427;-83
2022/05/17 04:20:33;;;;;;;45.58;32.38;;;;;;;;;;5005267;28;20900;-86
2022/05/17 04:22:59;;;;;;;43.05;31.10;;;;;;;;;;5003849;28;20429;-85
2022/05/17 04:25:28;;;;;;;47.35;31.77;;;;;;;;;;5004665;28;20927;-85
2022/05/17 04:27:55;;;;;;;42.25;32.90;;;;;;;;;;5002134;28;20433;-85
2022/05/17 04:30:23;;;;;;;37.92;29.60;;;;;;;;;;5002448;28;20435;-84
2022/05/17 04:32:49;;;;;;;42.38;31.55;;;;;;;;;;4999865;28;20438;-85
2022/05/17 04:35:16;;;;;;;43.63;32.05;;;;;;;;;;5005128;28;20875;-85
2022/05/17 04:37:43;;;;;;;42.25;32.67;;;;;;;;;;5003854;28;20413;-85
2022/05/17 04:40:11;;;;;;;42.80;32.80;;;;;;;;;;5005064;28;20891;-86
2022/05/17 04:42:37;;;;;;;40.60;30.70;;;;;;;;;;5003645;28;20414;-85
2022/05/17 04:45:03;;;;;;;41.00;30.40;;;;;;;;;;5005195;28;20487;-86
2022/05/17 04:47:31;;;;;;;42.43;32.97;;;;;;;;;;5003413;28;20420;-86
2022/05/17 04:49:57;;;;;;;47.95;31.92;;;;;;;;;;5003281;28;20443;-85
2022/05/17 04:52:24;;;;;;;37.95;30.38;;;;;;;;;;5001223;28;20408;-86
2022/05/17 04:54:50;;;;;;;45.27;30.40;;;;;;;;;;5005106;28;20479;-85
2022/05/17 04:57:16;;;;;;;45.00;32.30;;;;;;;;;;5001895;28;20409;-87
2022/05/17 04:59:42;;;;;;;47.17;30.60;;;;;;;;;;5003706;28;20422;-86
2022/05/17 05:02:09;;;;;;;40.80;30.42;;;;;;;;;;5002210;28;20442;-85
2022/05/17 05:04:38;;;;;;;37.95;28.08;;;;;;;;;;5005174;28;20480;-85
2022/05/17 05:07:04;;;;;;;38.03;28.88;;;;;;;;;;5003427;28;20490;-86
2022/05/17 05:09:31;;;;;;;39.03;30.63;;;;;;;;;;5004762;28;20444;-86
2022/05/17 05:11:57;;;;;;;40.75;30.17;;;;;;;;;;5003979;28;20429;-85
2022/05/17 05:14:24;;;;;;;42.15;32.17;;;;;;;;;;5004065;28;20915;-85
2022/05/17 05:16:50;;;;;;;38.90;30.10;;;;;;;;;;5004157;28;20850;-87
2022/05/17 05:19:16;;;;;;;46.97;33.38;;;;;;;;;;5004160;28;20482;-85
2022/05/17 05:21:44;;;;;;;43.53;31.33;;;;;;;;;;5002224;28;20508;-86
2022/05/17 05:24:11;;;;;;;40.83;29.67;;;;;;;;;;5003443;28;20924;-87
2022/05/17 05:26:37;;;;;;;39.40;29.60;;;;;;;;;;5003412;28;20985;-85
2022/05/17 05:29:04;;;;;;;41.22;29.25;;;;;;;;;;5002149;28;21965;-85
2022/05/17 05:31:30;;;;;;;41.15;28.02;;;;;;;;;;5003755;28;20448;-84
2022/05/17 05:33:56;;;;;;;36.53;27.77;;;;;;;;;;5004124;28;20487;-86
2022/05/17 05:36:22;;;;;;;38.25;29.23;;;;;;;;;;5004454;28;20460;-83
2022/05/17 05:38:51;;;;;;;40.42;27.05;;;;;;;;;;5000615;28;20517;-86
2022/05/17 05:41:17;;;;;;;40.72;27.25;;;;;;;;;;5001860;28;20440;-86
2022/05/17 05:43:43;;;;;;;37.72;26.65;;;;;;;;;;5003077;28;20842;-87
2022/05/17 05:46:09;;;;;;;37.78;26.73;;;;;;;;;;5004622;28;20904;-85
2022/05/17 05:48:36;;;;;;;41.50;27.85;;;;;;;;;;5003524;28;20479;-86
2022/05/17 05:51:02;;;;;;;36.85;26.55;;;;;;;;;;5003919;28;20914;-85
2022/05/17 05:53:29;;;;;;;38.78;27.35;;;;;;;;;;5002243;28;20825;-84
2022/05/17 05:56:01;;;;;;;37.72;26.17;;;;;;;;;;5001392;28;20432;-85
2022/05/17 05:58:28;;;;;;;37.47;25.47;;;;;;;;;;5000217;28;20431;-84
2022/05/17 06:00:54;;;;;;;39.45;26.85;;;;;;;;;;5000945;28;20507;-84
2022/05/17 06:03:20;;;;;;;31.67;24.63;;;;;;;;;;5004140;28;20424;-85
2022/05/17 06:05:47;;;;;;;31.25;22.65;;;;;;;;;;5001397;28;20986;-85
2022/05/17 06:08:13;;;;;;;37.58;23.70;;;;;;;;;;4995494;28;20928;-85
2022/05/17 06:10:41;;;;;;;30.67;22.55;;;;;;;;;;4999654;28;20532;-84
2022/05/17 06:13:08;;;;;;;33.15;21.58;;;;;;;;;;4999326;28;20438;-85
2022/05/17 06:15:34;;;;;;;33.00;22.10;;;;;;;;;;5003273;28;20430;-85
2022/05/17 06:18:01;;;;;;;35.63;23.13;;;;;;;;;;5000135;28;20934;-85
2022/05/17 06:20:27;;;;;;;32.67;24.20;;;;;;;;;;5002215;28;20433;-85
2022/05/17 06:22:53;;;;;;;28.25;20.83;;;;;;;;;;5000464;28;20916;-83
2022/05/17 06:25:19;;;;;;;29.33;19.77;;;;;;;;;;5000274;28;20440;-85
2022/05/17 06:27:46;;;;;;;26.52;17.90;;;;;;;;;;5000401;28;20481;-86
2022/05/17 06:30:14;;;;;;;26.92;17.48;;;;;;;;;;5000060;28;20848;-85
2022/05/17 06:32:40;;;;;;;30.70;17.60;;;;;;;;;;5000952;28;20421;-85
2022/05/17 06:35:07;;;;;;;26.23;18.52;;;;;;;;;;5001119;28;20504;-85
2022/05/17 06:37:33;;;;;;;28.25;17.27;;;;;;;;;;5000969;28;20928;-84
2022/05/17 06:39:59;;;;;;;24.02;17.75;;;;;;;;;;5004693;28;20438;-85
2022/05/17 06:42:27;;;;;;;27.42;17.23;;;;;;;;;;5003195;28;20484;-83
2022/05/17 06:44:53;;;;;;;28.55;19.52;;;;;;;;;;5005233;28;20448;-85
2022/05/17 06:47:21;;;;;;;27.45;18.77;;;;;;;;;;5005851;28;20837;-87
2022/05/17 06:49:47;;;;;;;28.95;19.88;;;;;;;;;;5003503;28;20440;-84
2022/05/17 06:52:13;;;;;;;29.20;20.00;;;;;;;;;;5004061;28;20495;-85
2022/05/17 06:54:41;;;;;;;30.23;20.13;;;;;;;;;;5005624;28;20440;-85
2022/05/17 06:57:08;;;;;;;30.83;20.93;;;;;;;;;;5004665;28;20444;-85
2022/05/17 06:59:35;;;;;;;29.48;21.77;;;;;;;;;;5002450;28;20428;-86
2022/05/17 07:02:02;;;;;;;30.38;20.85;;;;;;;;;;5005348;28;20416;-84
2022/05/17 07:04:29;;;;;;;29.45;22.10;;;;;;;;;;5004597;28;20496;-85
2022/05/17 07:06:56;;;;;;;33.33;22.70;;;;;;;;;;5005349;28;20438;-85
2022/05/17 07:09:23;;;;;;;29.80;22.25;;;;;;;;;;5004061;28;20434;-85
2022/05/17 07:14:33;;;;;;;30.02;20.70;;;;;;;;;;5007650;28;20790;-84
2022/05/17 07:16:59;;;;;;;23.23;19.10;;;;;;;;;;5003590;28;20432;-85
2022/05/17 07:19:26;;;;;;;32.47;21.27;;;;;;;;;;5004713;28;20417;-85
2022/05/17 07:21:53;;;;;;;27.67;20.00;;;;;;;;;;5004994;28;20882;-86
2022/05/17 07:24:19;;;;;;;30.92;20.50;;;;;;;;;;5003849;28;20839;-85
2022/05/17 07:26:45;;;;;;;29.13;20.85;;;;;;;;;;5002655;28;20469;-85
2022/05/17 07:29:12;;;;;;;27.88;20.40;;;;;;;;;;5004298;28;20519;-85
2022/05/17 07:31:38;;;;;;;26.15;20.50;;;;;;;;;;5006968;28;20528;-86
2022/05/17 07:34:04;;;;;;;28.90;19.60;;;;;;;;;;5005469;28;20482;-87
2022/05/17 07:36:31;;;;;;;28.33;19.15;;;;;;;;;;5003436;28;20529;-85
2022/05/17 07:38:59;;;;;;;31.85;19.45;;;;;;;;;;5003328;28;20494;-85
2022/05/17 07:41:25;;;;;;;24.30;19.52;;;;;;;;;;5005297;28;21122;-85
2022/05/17 07:43:52;;;;;;;27.23;17.73;;;;;;;;;;5003538;28;20433;-85
2022/05/17 07:46:18;;;;;;;26.55;17.98;;;;;;;;;;5005682;28;20414;-86
2022/05/17 07:48:44;;;;;;;30.08;16.92;;;;;;;;;;5003841;28;20430;-84
2022/05/17 07:51:10;;;;;;;25.87;16.50;;;;;;;;;;5006211;28;20466;-84
2022/05/17 07:53:37;;;;;;;26.70;16.77;;;;;;;;;;5005847;28;20426;-85
2022/05/17 07:56:05;;;;;;;25.13;16.20;;;;;;;;;;5007429;28;20422;-86
2022/05/17 07:58:31;;;;;;;25.02;17.08;;;;;;;;;;5004530;28;20533;-86
2022/05/17 08:00:58;;;;;;;24.90;16.88;;;;;;;;;;5005895;28;20474;-84
2022/05/17 08:03:24;;;;;;;27.40;17.75;;;;;;;;;;5002924;28;20420;-84
2022/05/17 08:05:51;;;;;;;25.92;16.98;;;;;;;;;;5005309;28;20512;-85
2022/05/17 08:08:17;;;;;;;26.63;16.70;;;;;;;;;;5004964;28;20448;-85
2022/05/17 08:10:44;;;;;;;26.42;17.20;;;;;;;;;;5006823;28;20915;-86
2022/05/17 08:13:14;;;;;;;30.15;17.20;;;;;;;;;;5003803;28;20489;-86
2022/05/17 08:15:40;;;;;;;24.08;17.02;;;;;;;;;;5007712;28;20432;-86
2022/05/17 08:18:06;;;;;;;24.52;16.77;;;;;;;;;;5006691;28;20418;-85
2022/05/17 08:20:33;;;;;;;25.65;16.58;;;;;;;;;;5009907;28;20436;-85
2022/05/17 08:23:00;;;;;;;25.40;16.85;;;;;;;;;;5008407;28;20425;-85
2022/05/17 08:28:12;;;;;;;22.35;15.32;;;;;;;;;;5002438;28;20422;-85
2022/05/17 08:30:38;;;;;;;23.83;15.77;;;;;;;;;;5003866;28;20436;-85
2022/05/17 08:33:17;;;;;;;26.48;15.70;;;;;;;;;;5003838;28;20453;-85
2022/05/17 08:35:46;;;;;;;24.63;14.25;;;;;;;;;;5004183;28;20416;-85
2022/05/17 08:38:13;;;;;;;21.75;14.45;;;;;;;;;;5004099;28;20428;-85
2022/05/17 08:40:46;;;;;;;20.43;14.60;;;;;;;;;;5006116;28;20468;-85
2022/05/17 08:43:20;;;;;;;24.75;16.10;;;;;;;;;;5004311;28;21025;-85
2022/05/17 08:45:55;;;;;;;23.27;15.25;;;;;;;;;;5005980;28;20473;-84
2022/05/17 08:48:22;;;;;;;22.08;14.20;;;;;;;;;;5005220;28;20428;-85
2022/05/17 08:50:49;;;;;;;24.73;15.45;;;;;;;;;;5003240;28;20476;-84
2022/05/17 08:53:17;;;;;;;22.55;15.25;;;;;;;;;;5004170;28;20483;-85
2022/05/17 08:55:44;;;;;;;23.05;15.13;;;;;;;;;;5004531;28;20902;-86
2022/05/17 08:58:12;;;;;;;20.55;13.50;;;;;;;;;;5003895;28;20417;-85
2022/05/17 09:00:41;;;;;;;20.83;13.43;;;;;;;;;;5004290;28;20422;-85
2022/05/17 09:03:14;;;;;;;19.00;12.32;;;;;;;;;;5005393;28;20482;-85
2022/05/17 09:05:47;;;;;;;18.87;11.60;;;;;;;;;;5005896;28;20426;-85
2022/05/17 09:08:17;;;;;;;17.88;11.75;;;;;;;;;;5005095;28;20426;-85
2022/05/17 09:10:46;;;;;;;19.42;10.60;;;;;;;;;;5005846;28;20960;-85
2022/05/17 09:13:15;;;;;;;20.00;11.48;;;;;;;;;;5003936;28;20469;-85
2022/05/17 09:15:43;;;;;;;20.00;11.20;;;;;;;;;;5007130;28;20455;-86
2022/05/17 09:18:11;;;;;;;14.70;10.20;;;;;;;;;;5003674;28;20423;-82
2022/05/17 09:20:38;;;;;;;21.25;11.20;;;;;;;;;;5003887;28;20459;-86
2022/05/17 09:23:04;;;;;;;17.40;10.90;;;;;;;;;;5001832;28;20432;-86
2022/05/17 09:25:45;;;;;;;19.42;11.32;;;;;;;;;;5005255;28;20426;-85
2022/05/17 09:28:12;;;;;;;18.20;10.43;;;;;;;;;;5005274;28;20510;-84
2022/05/17 09:30:39;;;;;;;15.50;10.07;;;;;;;;;;5008047;28;20918;-84
2022/05/17 09:33:09;;;;;;;16.60;10.65;;;;;;;;;;5006271;28;20475;-85
2022/05/17 09:35:39;;;;;;;15.48;10.13;;;;;;;;;;5006277;28;20787;-85
2022/05/17 09:38:06;;;;;;;16.40;10.40;;;;;;;;;;5005698;28;20420;-84
2022/05/17 09:40:36;;;;;;;14.88;10.85;;;;;;;;;;5006263;28;20444;-84
2022/05/17 09:43:04;;;;;;;17.75;10.35;;;;;;;;;;5004418;28;20475;-85
2022/05/17 09:45:37;;;;;;;16.50;11.70;;;;;;;;;;5006569;28;20421;-85
2022/05/17 09:48:05;;;;;;;16.33;11.60;;;;;;;;;;5006229;28;20466;-86
2022/05/17 09:53:40;;;;;;;16.23;12.07;;;;;;;;;;4929057;28;20560;-85
2022/05/17 09:56:07;;;;;;;21.77;11.90;;;;;;;;;;5001939;28;20459;-86
2022/05/17 09:58:34;;;;;;;18.92;11.35;;;;;;;;;;5000637;28;20856;-86
2022/05/17 10:01:01;;;;;;;12.98;10.65;;;;;;;;;;5004564;28;20517;-86
2022/05/17 10:03:30;;;;;;;16.67;11.98;;;;;;;;;;5003935;28;21026;-86
2022/05/17 10:05:59;;;;;;;16.95;11.20;;;;;;;;;;5003929;28;20450;-86
2022/05/17 10:08:37;;;;;;;18.25;11.95;;;;;;;;;;5000149;28;20498;-86
2022/05/17 10:11:13;;;;;;;18.27;12.45;;;;;;;;;;5002654;28;20428;-86
2022/05/17 10:13:44;;;;;;;17.27;12.52;;;;;;;;;;5002503;28;20431;-85
2022/05/17 10:16:14;;;;;;;17.30;12.35;;;;;;;;;;5005357;28;20517;-85
2022/05/17 10:18:44;;;;;;;17.40;10.35;;;;;;;;;;5005936;28;20422;-87
2022/05/17 10:21:13;;;;;;;16.98;11.30;;;;;;;;;;5007243;28;20437;-86
2022/05/17 10:23:44;;;;;;;16.63;12.47;;;;;;;;;;5007719;28;20463;-87
2022/05/17 10:26:12;;;;;;;17.10;11.87;;;;;;;;;;5007495;28;20947;-87
2022/05/17 10:28:41;;;;;;;17.23;11.88;;;;;;;;;;5003889;28;20536;-86
2022/05/17 10:31:13;;;;;;;15.88;11.38;;;;;;;;;;5004428;28;20420;-86
2022/05/17 10:33:44;;;;;;;13.30;11.80;;;;;;;;;;5004334;28;20446;-87
2022/05/17 10:36:18;;;;;;;18.02;12.27;;;;;;;;;;5004516;28;20444;-87
2022/05/17 10:38:49;;;;;;;16.27;11.70;;;;;;;;;;5003017;28;20436;-85
2022/05/17 10:41:15;;;;;;;14.43;11.05;;;;;;;;;;5007387;28;20490;-86
2022/05/17 10:43:44;;;;;;;14.93;10.98;;;;;;;;;;5006045;28;20426;-87
2022/05/17 10:46:11;;;;;;;16.73;10.43;;;;;;;;;;5006019;28;20900;-86
2022/05/17 10:48:41;;;;;;;14.65;11.10;;;;;;;;;;5004866;28;20418;-86
2022/05/17 10:51:11;;;;;;;12.55;11.02;;;;;;;;;;5006074;28;20425;-84
2022/05/17 10:53:47;;;;;;;13.30;9.75;;;;;;;;;;5003421;28;21271;-87
2022/05/17 10:56:18;;;;;;;16.05;9.80;;;;;;;;;;5005266;28;20465;-86
2022/05/17 10:58:49;;;;;;;13.85;10.15;;;;;;;;;;5003064;28;20432;-84
2022/05/17 11:01:17;;;;;;;15.15;10.02;;;;;;;;;;5003994;28;20446;-86
2022/05/17 11:04:01;;;;;;;15.00;10.30;;;;;;;;;;5004640;28;20912;-85
2022/05/17 11:06:32;;;;;;;15.85;11.63;;;;;;;;;;5005001;28;20521;-87
2022/05/17 11:09:02;;;;;;;15.43;10.77;;;;;;;;;;5000960;28;20446;-87
2022/05/17 11:11:35;;;;;;;16.92;12.00;;;;;;;;;;5003184;28;20436;-86
2022/05/17 11:14:04;;;;;;;15.57;12.15;;;;;;;;;;5000866;28;20994;-86
2022/05/17 11:16:36;;;;;;;17.10;12.10;;;;;;;;;;5004468;28;20419;-86
2022/05/17 11:19:04;;;;;;;18.20;14.53;;;;;;;;;;5002935;28;20498;-87
2022/05/17 11:21:33;;;;;;;16.97;13.90;;;;;;;;;;5006194;28;20519;-86
2022/05/17 11:24:05;;;;;;;13.85;11.13;;;;;;;;;;5006435;28;20522;-87
2022/05/17 11:26:55;;;;;;;15.90;11.10;;;;;;;;;;5004895;28;20413;-86
2022/05/17 11:29:40;;;;;;;16.42;10.80;;;;;;;;;;5008412;28;20405;-86
2022/05/17 11:32:16;;;;;;;13.33;10.57;;;;;;;;;;5005736;28;20435;-86
2022/05/17 11:34:43;;;;;;;15.00;11.32;;;;;;;;;;5007261;28;20412;-86
2022/05/17 11:37:30;;;;;;;15.50;11.20;;;;;;;;;;5003982;28;20994;-86
2022/05/17 11:39:57;;;;;;;15.70;9.73;;;;;;;;;;5004920;28;20457;-86
2022/05/17 11:42:29;;;;;;;13.77;11.18;;;;;;;;;;5003230;28;20430;-86
2022/05/17 11:44:55;;;;;;;14.20;9.88;;;;;;;;;;5002671;28;20432;-86
2022/05/17 11:47:29;;;;;;;14.65;11.18;;;;;;;;;;5005259;28;20430;-87
2022/05/17 11:50:20;;;;;;;13.65;10.07;;;;;;;;;;5001441;28;20951;-86
2022/05/17 11:52:47;;;;;;;16.50;9.75;;;;;;;;;;5003810;28;20453;-86
2022/05/17 11:55:17;;;;;;;15.33;11.37;;;;;;;;;;5003256;28;20922;-86
2022/05/17 11:58:03;;;;;;;14.60;10.75;;;;;;;;;;5007649;28;20429;-86
2022/05/17 12:00:45;;;;;;;14.75;8.63;;;;;;;;;;5004722;28;20428;-86
2022/05/17 12:03:42;;;;;;;11.98;7.13;;;;;;;;;;5002960;28;20409;-86
2022/05/17 12:06:27;;;;;;;10.88;8.68;;;;;;;;;;5003017;28;20461;-86
2022/05/17 12:08:53;;;;;;;11.55;6.85;;;;;;;;;;5004040;28;21017;-86
2022/05/17 12:11:23;;;;;;;12.52;9.52;;;;;;;;;;5004649;28;20478;-87
2022/05/17 12:13:53;;;;;;;15.30;12.20;;;;;;;;;;5003278;28;20483;-86
2022/05/17 12:16:22;;;;;;;13.77;11.15;;;;;;;;;;5005029;28;20441;-86
2022/05/17 12:18:51;;;;;;;12.35;10.50;;;;;;;;;;5003300;28;20421;-86
2022/05/17 12:21:31;;;;;;;16.20;10.25;;;;;;;;;;5005359;28;20440;-86
2022/05/17 12:24:03;;;;;;;16.20;9.93;;;;;;;;;;5004215;28;20427;-86
2022/05/17 12:26:36;;;;;;;12.10;7.38;;;;;;;;;;5005315;28;20441;-86
2022/05/17 12:30:53;;;;;;;12.25;7.50;;;;;;;;;;5003654;28;20422;-86
2022/05/17 12:31:56;;;;;;;9.77;7.40;;;;;;;;;;5005253;28;20479;-86
2022/05/17 12:34:23;;;;;;;9.27;6.07;;;;;;;;;;5005266;28;20953;-86
2022/05/17 12:36:51;;;;;;;8.82;6.10;;;;;;;;;;5009701;28;20792;-85
2022/05/17 12:44:51;;;;;;;10.90;6.05;;;;;;;;;;5004910;28;20928;-86
2022/05/17 12:47:19;;;;;;;12.53;6.60;;;;;;;;;;5006750;28;20418;-85
2022/05/17 12:49:46;;;;;;;10.97;6.23;;;;;;;;;;5004122;28;20487;-86
2022/05/17 12:52:20;;;;;;;10.07;6.90;;;;;;;;;;5004700;28;20438;-86
2022/05/17 12:54:49;;;;;;;10.95;7.10;;;;;;;;;;5003333;28;20503;-86
2022/05/17 12:57:16;;;;;;;12.60;7.75;;;;;;;;;;5001870;28;20949;-85
2022/05/17 12:59:42;;;;;;;13.33;8.30;;;;;;;;;;5001702;28;20438;-86
2022/05/17 13:02:09;;;;;;;10.55;8.13;;;;;;;;;;5006254;28;20907;-86
2022/05/17 13:04:37;;;;;;;14.35;8.10;;;;;;;;;;5010274;28;20498;-86
2022/05/17 13:07:12;;;;;;;10.48;7.72;;;;;;;;;;5004769;28;20445;-86
2022/05/17 13:09:52;;;;;;;12.10;7.00;;;;;;;;;;5003831;28;20481;-86
2022/05/17 13:12:18;;;;;;;11.20;6.57;;;;;;;;;;5003430;28;20967;-86
2022/05/17 13:14:48;;;;;;;8.20;5.80;;;;;;;;;;5004106;28;20475;-85
2022/05/17 13:17:22;;;;;;;9.73;5.95;;;;;;;;;;5001896;28;20420;-86
2022/05/17 13:19:49;;;;;;;10.03;5.33;;;;;;;;;;5002785;28;20439;-86
2022/05/17 13:22:18;;;;;;;8.80;5.50;;;;;;;;;;5003417;28;20453;-86
2022/05/17 13:24:46;;;;;;;9.88;5.70;;;;;;;;;;5004026;28;20545;-84
2022/05/17 13:27:24;;;;;;;11.00;6.63;;;;;;;;;;5003420;28;20427;-86
2022/05/17 13:29:51;;;;;;;11.63;8.00;;;;;;;;;;5003110;28;20505;-85
2022/05/17 13:32:20;;;;;;;9.88;4.85;;;;;;;;;;5004970;28;20568;-86
2022/05/17 13:34:46;;;;;;;10.48;4.68;;;;;;;;;;5010665;28;20434;-86
2022/05/17 13:37:14;;;;;;;7.97;5.40;;;;;;;;;;5004269;28;20907;-86
2022/05/17 13:39:44;;;;;;;10.70;5.78;;;;;;;;;;5002692;28;20989;-86
2022/05/17 13:42:22;;;;;;;8.07;5.70;;;;;;;;;;5003642;28;20414;-87
2022/05/17 13:44:52;;;;;;;10.63;5.77;;;;;;;;;;5004098;28;20411;-87
2022/05/17 13:47:22;;;;;;;10.07;5.30;;;;;;;;;;5003177;28;20453;-86
2022/05/17 13:49:49;;;;;;;9.40;5.50;;;;;;;;;;5001907;28;20510;-86
2022/05/17 13:52:20;;;;;;;10.90;7.20;;;;;;;;;;5000605;28;20419;-86
2022/05/17 13:54:50;;;;;;;12.52;7.80;;;;;;;;;;5000845;28;20543;-86
2022/05/17 13:57:21;;;;;;;12.07;7.05;;;;;;;;;;5002309;28;20417;-86
2022/05/17 13:59:50;;;;;;;9.65;6.80;;;;;;;;;;5002311;28;20435;-86
2022/05/17 14:02:30;;;;;;;9.20;5.95;;;;;;;;;;5003684;28;20968;-85
2022/05/17 14:05:06;;;;;;;9.40;5.50;;;;;;;;;;5003204;28;20437;-86
2022/05/17 14:07:34;;;;;;;9.98;5.60;;;;;;;;;;5001342;28;20446;-85
2022/05/17 14:13:04;;;;;;;9.55;5.03;;;;;;;;;;5000183;28;20552;-86
2022/05/17 14:15:32;;;;;;;9.93;5.00;;;;;;;;;;5003833;28;20455;-86
2022/05/17 14:17:58;;;;;;;10.93;5.90;;;;;;;;;;5003395;28;20430;-85
2022/05/17 14:20:24;;;;;;;7.75;4.63;;;;;;;;;;5007579;28;20579;-86
2022/05/17 14:22:52;;;;;;;7.22;3.80;;;;;;;;;;5002891;28;20469;-86
2022/05/17 14:25:19;;;;;;;8.20;5.10;;;;;;;;;;5003945;28;20427;-86
2022/05/17 14:27:45;;;;;;;8.85;4.72;;;;;;;;;;5001222;28;20472;-85
2022/05/17 14:30:12;;;;;;;8.85;4.93;;;;;;;;;;4999812;28;20408;-86
2022/05/17 14:32:40;;;;;;;8.60;4.47;;;;;;;;;;5000585;28;20442;-86
2022/05/17 14:35:06;;;;;;;9.05;4.90;;;;;;;;;;4999931;28;20427;-86
2022/05/17 14:37:32;;;;;;;9.23;4.80;;;;;;;;;;5002923;28;20427;-85
2022/05/17 14:39:59;;;;;;;9.68;5.25;;;;;;;;;;5003625;28;20428;-86
2022/05/17 14:42:25;;;;;;;10.05;5.72;;;;;;;;;;5003691;28;20836;-87
2022/05/17 14:44:51;;;;;;;7.07;4.85;;;;;;;;;;4998701;28;20434;-86
2022/05/17 14:47:21;;;;;;;10.30;5.10;;;;;;;;;;5000239;28;20843;-86